createdAt,value
2018-05-02T00:00:22.496Z,83.80
2018-05-02T00:00:55.021Z,83.80
2018-05-02T00:01:28.314Z,83.80
2018-05-02T00:02:01.893Z,83.80
2018-05-02T00:02:35.007Z,83.20
2018-05-02T00:03:07.582Z,83.80
2018-05-02T00:03:40.110Z,83.30
2018-05-02T00:04:12.618Z,83.90
2018-05-02T00:04:45.160Z,84.10
2018-05-02T00:05:58.227Z,84.30
2018-05-02T00:06:31.495Z,84.30
2018-05-02T00:07:05.456Z,84.30
2018-05-02T00:07:38.989Z,84.20
2018-05-02T00:08:14.215Z,84.10
2018-05-02T00:08:46.737Z,84.00
2018-05-02T00:09:21.629Z,83.80
2018-05-02T00:09:56.324Z,83.70
2018-05-02T00:10:30.389Z,83.50
2018-05-02T00:11:02.919Z,83.50
2018-05-02T00:11:36.233Z,83.40
2018-05-02T00:12:08.763Z,83.20
2018-05-02T00:12:41.301Z,83.10
2018-05-02T00:13:14.575Z,83.10
2018-05-02T00:13:48.281Z,82.90
2018-05-02T00:14:21.595Z,82.90
2018-05-02T00:14:54.256Z,82.80
2018-05-02T00:15:26.750Z,82.60
2018-05-02T00:16:00.393Z,82.40
2018-05-02T00:16:34.849Z,82.90
2018-05-02T00:17:07.909Z,82.40
2018-05-02T00:17:41.062Z,83.00
2018-05-02T00:18:13.596Z,83.10
2018-05-02T00:18:46.870Z,83.20
2018-05-02T00:19:20.289Z,83.30
2018-05-02T00:19:52.823Z,83.20
2018-05-02T00:20:26.108Z,83.30
2018-05-02T00:20:59.515Z,83.30
2018-05-02T00:21:32.293Z,83.20
2018-05-02T00:22:04.837Z,83.40
2018-05-02T00:22:38.133Z,83.60
2018-05-02T00:23:13.216Z,83.30
2018-05-02T00:23:45.727Z,84.00
2018-05-02T00:24:19.193Z,84.10
2018-05-02T00:24:51.703Z,84.10
2018-05-02T00:25:24.220Z,83.60
2018-05-02T00:25:56.719Z,84.20
2018-05-02T00:26:29.279Z,84.20
2018-05-02T00:27:01.783Z,84.20
2018-05-02T00:27:35.043Z,84.50
2018-05-02T00:28:07.580Z,84.50
2018-05-02T00:28:41.503Z,84.50
2018-05-02T00:29:15.200Z,84.40
2018-05-02T00:29:47.760Z,84.30
2018-05-02T00:30:20.318Z,84.20
2018-05-02T00:30:52.826Z,84.10
2018-05-02T00:31:28.179Z,84.10
2018-05-02T00:32:05.360Z,84.10
2018-05-02T00:32:38.836Z,83.40
2018-05-02T00:33:11.380Z,84.00
2018-05-02T00:33:44.692Z,84.00
2018-05-02T00:34:18.681Z,83.90
2018-05-02T00:34:51.771Z,83.80
2018-05-02T00:35:26.112Z,83.70
2018-05-02T00:35:59.602Z,83.70
2018-05-02T00:36:34.033Z,83.80
2018-05-02T00:37:08.760Z,83.30
2018-05-02T00:37:42.246Z,83.90
2018-05-02T00:38:14.834Z,83.90
2018-05-02T00:38:48.868Z,83.90
2018-05-02T00:39:21.473Z,84.10
2018-05-02T00:39:54.641Z,84.10
2018-05-02T00:40:27.168Z,84.10
2018-05-02T00:41:00.849Z,83.90
2018-05-02T00:41:33.363Z,83.80
2018-05-02T00:42:06.824Z,83.70
2018-05-02T00:42:41.420Z,83.80
2018-05-02T00:43:13.932Z,83.70
2018-05-02T00:43:46.451Z,83.70
2018-05-02T00:44:18.982Z,83.80
2018-05-02T00:44:51.493Z,83.60
2018-05-02T00:45:24.759Z,83.60
2018-05-02T00:45:58.080Z,83.50
2018-05-02T00:46:30.605Z,83.50
2018-05-02T00:47:03.118Z,83.60
2018-05-02T00:47:35.629Z,83.60
2018-05-02T00:48:08.147Z,83.60
2018-05-02T00:48:52.375Z,83.60
2018-05-02T00:49:24.883Z,83.60
2018-05-02T00:49:57.600Z,83.50
2018-05-02T00:50:30.117Z,83.50
2018-05-02T00:51:02.680Z,83.40
2018-05-02T00:51:35.205Z,83.40
2018-05-02T00:52:08.561Z,83.40
2018-05-02T00:52:41.085Z,83.40
2018-05-02T00:53:13.588Z,83.50
2018-05-02T00:53:46.162Z,83.50
2018-05-02T00:54:18.673Z,83.40
2018-05-02T00:54:51.909Z,83.30
2018-05-02T00:55:24.571Z,83.20
2018-05-02T00:55:58.960Z,83.40
2018-05-02T00:56:31.489Z,83.30
2018-05-02T00:57:04.885Z,83.30
2018-05-02T00:57:37.387Z,83.30
2018-05-02T00:58:09.956Z,83.20
2018-05-02T00:58:42.612Z,83.20
2018-05-02T00:59:15.171Z,83.20
2018-05-02T00:59:47.693Z,83.00
2018-05-02T01:00:20.203Z,82.90
2018-05-02T01:00:52.707Z,82.80
2018-05-02T01:01:25.448Z,82.70
2018-05-02T01:01:57.999Z,82.80
2018-05-02T01:02:31.569Z,82.90
2018-05-02T01:03:04.126Z,83.00
2018-05-02T01:03:36.637Z,82.90
2018-05-02T01:04:09.191Z,83.00
2018-05-02T01:04:41.724Z,83.00
2018-05-02T01:05:14.328Z,83.00
2018-05-02T01:05:46.850Z,83.20
2018-05-02T01:06:19.369Z,83.20
2018-05-02T01:06:51.894Z,83.30
2018-05-02T01:07:24.421Z,83.40
2018-05-02T01:07:57.706Z,84.10
2018-05-02T01:08:30.364Z,83.20
2018-05-02T01:09:03.635Z,83.20
2018-05-02T01:09:36.156Z,83.20
2018-05-02T01:10:08.937Z,83.20
2018-05-02T01:10:41.585Z,83.20
2018-05-02T01:11:14.933Z,83.20
2018-05-02T01:11:47.491Z,83.20
2018-05-02T01:12:20.046Z,83.10
2018-05-02T01:12:52.608Z,83.10
2018-05-02T01:13:25.161Z,83.20
2018-05-02T01:13:57.660Z,83.20
2018-05-02T01:14:30.943Z,83.30
2018-05-02T01:15:03.470Z,83.20
2018-05-02T01:15:36.200Z,84.00
2018-05-02T01:16:08.717Z,83.80
2018-05-02T01:16:41.221Z,85.10
2018-05-02T01:17:13.737Z,84.40
2018-05-02T01:17:46.249Z,84.40
2018-05-02T01:18:19.025Z,84.40
2018-05-02T01:18:51.524Z,84.40
2018-05-02T01:19:24.055Z,84.50
2018-05-02T01:19:56.595Z,84.50
2018-05-02T01:20:29.171Z,84.50
2018-05-02T01:21:01.724Z,84.50
2018-05-02T01:21:34.233Z,84.60
2018-05-02T01:22:06.731Z,84.70
2018-05-02T01:22:40.025Z,84.80
2018-05-02T01:23:12.551Z,84.80
2018-05-02T01:23:45.072Z,84.80
2018-05-02T01:24:17.579Z,84.80
2018-05-02T01:24:50.106Z,84.80
2018-05-02T01:25:22.608Z,84.70
2018-05-02T01:25:55.117Z,84.70
2018-05-02T01:26:27.626Z,84.80
2018-05-02T01:27:00.234Z,84.90
2018-05-02T01:27:32.748Z,84.90
2018-05-02T01:28:05.260Z,84.90
2018-05-02T01:28:37.774Z,84.80
2018-05-02T01:29:10.435Z,84.10
2018-05-02T01:29:43.004Z,84.70
2018-05-02T01:30:15.537Z,84.70
2018-05-02T01:30:48.108Z,84.70
2018-05-02T01:31:20.615Z,84.10
2018-05-02T01:31:53.121Z,84.70
2018-05-02T01:32:25.632Z,84.10
2018-05-02T01:32:58.145Z,84.70
2018-05-02T01:33:30.652Z,84.80
2018-05-02T01:34:03.204Z,84.80
2018-05-02T01:34:35.723Z,84.80
2018-05-02T01:35:08.226Z,84.70
2018-05-02T01:35:40.966Z,84.70
2018-05-02T01:36:13.467Z,84.80
2018-05-02T01:36:45.993Z,84.80
2018-05-02T01:37:18.507Z,84.80
2018-05-02T01:37:51.019Z,84.80
2018-05-02T01:38:23.543Z,84.80
2018-05-02T01:38:56.046Z,84.70
2018-05-02T01:39:28.547Z,84.70
2018-05-02T01:40:01.081Z,84.80
2018-05-02T01:40:33.600Z,84.70
2018-05-02T01:41:06.872Z,84.50
2018-05-02T01:41:39.740Z,84.40
2018-05-02T01:42:13.066Z,84.40
2018-05-02T01:42:45.631Z,84.40
2018-05-02T01:43:18.197Z,83.80
2018-05-02T01:43:50.733Z,84.40
2018-05-02T01:44:23.240Z,84.40
2018-05-02T01:44:55.764Z,83.80
2018-05-02T01:45:28.409Z,84.40
2018-05-02T01:46:00.926Z,84.50
2018-05-02T01:46:33.443Z,84.60
2018-05-02T01:47:05.966Z,84.70
2018-05-02T01:47:38.505Z,84.70
2018-05-02T01:48:11.007Z,84.80
2018-05-02T01:48:55.626Z,84.80
2018-05-02T01:49:28.131Z,84.90
2018-05-02T01:50:00.754Z,85.00
2018-05-02T01:50:33.343Z,85.00
2018-05-02T01:51:05.841Z,85.00
2018-05-02T01:51:39.253Z,85.10
2018-05-02T01:52:11.765Z,84.40
2018-05-02T01:52:44.284Z,85.00
2018-05-02T01:53:16.787Z,85.00
2018-05-02T01:53:49.316Z,85.10
2018-05-02T01:54:21.829Z,85.80
2018-05-02T01:54:54.367Z,85.10
2018-05-02T01:55:26.877Z,85.10
2018-05-02T01:55:59.429Z,85.10
2018-05-02T01:56:32.783Z,85.20
2018-05-02T01:57:06.024Z,85.30
2018-05-02T01:57:38.685Z,85.20
2018-05-02T01:58:11.187Z,85.20
2018-05-02T01:58:43.692Z,85.20
2018-05-02T01:59:16.198Z,85.20
2018-05-02T01:59:48.705Z,85.20
2018-05-02T02:00:21.984Z,85.40
2018-05-02T02:00:54.491Z,85.30
2018-05-02T02:01:27.018Z,84.80
2018-05-02T02:02:00.301Z,85.50
2018-05-02T02:02:32.836Z,85.40
2018-05-02T02:03:05.352Z,85.40
2018-05-02T02:03:37.916Z,85.40
2018-05-02T02:04:10.497Z,85.30
2018-05-02T02:04:43.010Z,84.90
2018-05-02T02:05:16.283Z,85.30
2018-05-02T02:05:48.800Z,85.30
2018-05-02T02:06:21.329Z,85.30
2018-05-02T02:06:53.896Z,85.30
2018-05-02T02:07:26.395Z,85.40
2018-05-02T02:07:58.900Z,85.50
2018-05-02T02:08:31.400Z,85.50
2018-05-02T02:09:03.917Z,85.50
2018-05-02T02:09:36.426Z,85.60
2018-05-02T02:10:08.945Z,85.60
2018-05-02T02:10:41.456Z,85.00
2018-05-02T02:11:13.956Z,85.60
2018-05-02T02:11:46.460Z,85.60
2018-05-02T02:12:18.987Z,85.50
2018-05-02T02:12:51.504Z,85.40
2018-05-02T02:13:24.072Z,85.40
2018-05-02T02:13:56.640Z,84.80
2018-05-02T02:14:29.158Z,85.30
2018-05-02T02:15:01.673Z,85.20
2018-05-02T02:15:34.350Z,85.20
2018-05-02T02:16:06.889Z,85.30
2018-05-02T02:16:39.418Z,85.30
2018-05-02T02:17:12.704Z,85.40
2018-05-02T02:17:45.264Z,85.30
2018-05-02T02:18:17.798Z,85.40
2018-05-02T02:18:50.445Z,85.40
2018-05-02T02:19:22.954Z,85.40
2018-05-02T02:19:55.672Z,85.30
2018-05-02T02:20:28.221Z,85.40
2018-05-02T02:21:00.748Z,84.90
2018-05-02T02:21:33.302Z,85.40
2018-05-02T02:22:05.820Z,85.60
2018-05-02T02:22:38.343Z,85.50
2018-05-02T02:23:10.861Z,85.50
2018-05-02T02:23:43.384Z,85.50
2018-05-02T02:24:15.896Z,85.50
2018-05-02T02:24:48.412Z,85.50
2018-05-02T02:25:20.914Z,85.60
2018-05-02T02:25:53.415Z,85.00
2018-05-02T02:26:25.936Z,85.60
2018-05-02T02:26:58.436Z,84.90
2018-05-02T02:27:30.955Z,85.50
2018-05-02T02:28:03.466Z,85.50
2018-05-02T02:28:35.988Z,85.50
2018-05-02T02:29:08.497Z,85.40
2018-05-02T02:29:41.005Z,85.00
2018-05-02T02:30:13.566Z,85.50
2018-05-02T02:30:46.068Z,85.60
2018-05-02T02:31:19.349Z,86.10
2018-05-02T02:31:51.840Z,85.10
2018-05-02T02:32:24.382Z,85.80
2018-05-02T02:32:56.897Z,85.80
2018-05-02T02:33:29.420Z,85.70
2018-05-02T02:34:02.708Z,85.70
2018-05-02T02:34:35.222Z,85.10
2018-05-02T02:35:07.736Z,85.80
2018-05-02T02:35:40.245Z,85.70
2018-05-02T02:36:12.771Z,85.60
2018-05-02T02:36:45.281Z,85.50
2018-05-02T02:37:17.789Z,85.50
2018-05-02T02:37:51.202Z,85.60
2018-05-02T02:38:23.943Z,85.60
2018-05-02T02:38:56.456Z,85.60
2018-05-02T02:39:29.005Z,85.00
2018-05-02T02:40:01.537Z,85.50
2018-05-02T02:40:34.050Z,85.70
2018-05-02T02:41:06.553Z,85.60
2018-05-02T02:41:39.071Z,85.50
2018-05-02T02:42:11.570Z,85.60
2018-05-02T02:42:44.080Z,85.60
2018-05-02T02:43:16.584Z,85.60
2018-05-02T02:43:49.091Z,85.70
2018-05-02T02:44:22.758Z,85.10
2018-05-02T02:44:55.311Z,85.70
2018-05-02T02:45:27.856Z,85.20
2018-05-02T02:46:00.401Z,85.70
2018-05-02T02:46:32.913Z,85.60
2018-05-02T02:47:06.179Z,85.70
2018-05-02T02:47:38.762Z,85.60
2018-05-02T02:48:11.271Z,85.10
2018-05-02T02:48:43.859Z,85.70
2018-05-02T02:49:16.577Z,85.80
2018-05-02T02:49:49.269Z,85.80
2018-05-02T02:50:21.794Z,85.80
2018-05-02T02:50:54.393Z,85.80
2018-05-02T02:51:26.895Z,85.80
2018-05-02T02:51:59.494Z,85.30
2018-05-02T02:52:32.035Z,85.90
2018-05-02T02:53:05.308Z,86.00
2018-05-02T02:53:37.816Z,85.90
2018-05-02T02:54:10.344Z,86.00
2018-05-02T02:54:43.649Z,85.90
2018-05-02T02:55:16.191Z,85.80
2018-05-02T02:55:48.706Z,85.80
2018-05-02T02:56:21.205Z,85.90
2018-05-02T02:56:54.515Z,86.10
2018-05-02T02:57:27.008Z,86.10
2018-05-02T02:57:59.513Z,86.10
2018-05-02T02:58:32.794Z,86.20
2018-05-02T02:59:05.443Z,86.20
2018-05-02T02:59:37.936Z,85.60
2018-05-02T03:00:10.461Z,86.10
2018-05-02T03:00:42.994Z,86.10
2018-05-02T03:01:15.525Z,86.10
2018-05-02T03:01:48.809Z,86.10
2018-05-02T03:02:21.326Z,86.10
2018-05-02T03:02:53.892Z,86.20
2018-05-02T03:03:26.399Z,86.30
2018-05-02T03:03:58.924Z,86.40
2018-05-02T03:04:31.433Z,86.40
2018-05-02T03:05:03.957Z,86.20
2018-05-02T03:05:36.464Z,86.20
2018-05-02T03:06:08.967Z,86.10
2018-05-02T03:06:41.506Z,86.10
2018-05-02T03:07:14.159Z,86.10
2018-05-02T03:07:46.665Z,86.10
2018-05-02T03:08:19.957Z,86.00
2018-05-02T03:08:53.247Z,85.90
2018-05-02T03:09:25.774Z,85.90
2018-05-02T03:09:58.306Z,85.90
2018-05-02T03:10:30.977Z,85.90
2018-05-02T03:11:03.742Z,85.90
2018-05-02T03:11:36.261Z,85.90
2018-05-02T03:12:08.820Z,85.90
2018-05-02T03:12:41.332Z,85.90
2018-05-02T03:13:13.843Z,85.80
2018-05-02T03:13:46.348Z,85.90
2018-05-02T03:14:18.847Z,85.90
2018-05-02T03:14:51.359Z,85.90
2018-05-02T03:15:23.864Z,85.90
2018-05-02T03:15:56.427Z,86.00
2018-05-02T03:16:28.934Z,86.00
2018-05-02T03:17:01.449Z,86.10
2018-05-02T03:17:33.991Z,85.70
2018-05-02T03:18:06.505Z,86.30
2018-05-02T03:18:39.007Z,86.20
2018-05-02T03:19:11.503Z,86.30
2018-05-02T03:19:44.028Z,86.30
2018-05-02T03:20:16.521Z,86.40
2018-05-02T03:20:49.023Z,86.40
2018-05-02T03:21:21.604Z,86.50
2018-05-02T03:21:54.885Z,86.40
2018-05-02T03:22:27.400Z,86.40
2018-05-02T03:22:59.912Z,86.50
2018-05-02T03:23:33.189Z,86.40
2018-05-02T03:24:05.708Z,86.40
2018-05-02T03:24:38.255Z,86.40
2018-05-02T03:25:10.756Z,86.40
2018-05-02T03:25:43.270Z,86.50
2018-05-02T03:26:15.789Z,86.70
2018-05-02T03:26:49.067Z,86.50
2018-05-02T03:27:21.589Z,86.50
2018-05-02T03:27:54.150Z,86.40
2018-05-02T03:28:26.710Z,86.70
2018-05-02T03:28:59.218Z,86.70
2018-05-02T03:29:31.751Z,86.70
2018-05-02T03:30:04.260Z,86.80
2018-05-02T03:30:37.523Z,86.80
2018-05-02T03:31:10.042Z,86.80
2018-05-02T03:31:42.553Z,86.90
2018-05-02T03:32:15.052Z,86.80
2018-05-02T03:32:48.320Z,86.70
2018-05-02T03:33:20.851Z,86.70
2018-05-02T03:33:53.384Z,86.80
2018-05-02T03:34:26.011Z,86.40
2018-05-02T03:34:58.539Z,87.00
2018-05-02T03:35:31.071Z,86.40
2018-05-02T03:36:03.783Z,87.00
2018-05-02T03:36:36.296Z,86.90
2018-05-02T03:37:08.801Z,86.90
2018-05-02T03:37:41.310Z,86.90
2018-05-02T03:38:13.820Z,86.90
2018-05-02T03:38:47.129Z,87.00
2018-05-02T03:39:19.643Z,87.00
2018-05-02T03:39:52.147Z,87.00
2018-05-02T03:40:24.657Z,87.00
2018-05-02T03:40:57.166Z,86.90
2018-05-02T03:41:29.693Z,86.90
2018-05-02T03:42:02.200Z,87.00
2018-05-02T03:42:34.707Z,87.10
2018-05-02T03:43:07.261Z,87.10
2018-05-02T03:43:39.776Z,87.10
2018-05-02T03:44:12.298Z,87.20
2018-05-02T03:44:44.826Z,87.30
2018-05-02T03:45:17.336Z,87.50
2018-05-02T03:45:49.930Z,87.50
2018-05-02T03:46:22.443Z,87.60
2018-05-02T03:46:55.121Z,87.00
2018-05-02T03:47:27.626Z,87.60
2018-05-02T03:48:00.136Z,87.60
2018-05-02T03:48:32.649Z,87.60
2018-05-02T03:49:05.177Z,87.60
2018-05-02T03:49:37.789Z,87.70
2018-05-02T03:50:10.305Z,87.30
2018-05-02T03:50:43.070Z,87.90
2018-05-02T03:51:15.832Z,88.00
2018-05-02T03:51:48.343Z,88.00
2018-05-02T03:52:20.868Z,88.00
2018-05-02T03:52:53.439Z,88.10
2018-05-02T03:53:26.040Z,88.10
2018-05-02T03:53:58.551Z,88.10
2018-05-02T03:54:31.061Z,88.00
2018-05-02T03:55:03.590Z,88.00
2018-05-02T03:55:36.277Z,88.00
2018-05-02T03:56:08.915Z,88.10
2018-05-02T03:56:41.425Z,88.10
2018-05-02T03:57:14.040Z,88.30
2018-05-02T03:57:46.602Z,88.40
2018-05-02T03:58:19.111Z,87.90
2018-05-02T03:58:51.624Z,88.50
2018-05-02T03:59:35.943Z,88.40
2018-05-02T04:00:20.146Z,87.90
2018-05-02T04:01:04.349Z,87.80
2018-05-02T04:01:48.639Z,88.30
2018-05-02T04:03:12.728Z,87.70
2018-05-02T04:03:57.737Z,88.30
2018-05-02T04:04:42.259Z,87.70
2018-05-02T04:05:26.516Z,88.40
2018-05-02T04:06:10.980Z,88.50
2018-05-02T04:07:09.999Z,87.90
2018-05-02T04:07:42.556Z,87.80
2018-05-02T04:08:15.829Z,88.20
2018-05-02T04:08:48.360Z,87.70
2018-05-02T04:09:20.929Z,88.70
2018-05-02T04:09:53.446Z,88.20
2018-05-02T04:10:25.978Z,88.20
2018-05-02T04:10:59.250Z,88.30
2018-05-02T04:11:31.773Z,87.70
2018-05-02T04:12:04.354Z,87.80
2018-05-02T04:12:36.869Z,87.80
2018-05-02T04:13:10.145Z,87.90
2018-05-02T04:13:42.660Z,88.00
2018-05-02T04:14:16.225Z,88.50
2018-05-02T04:14:48.747Z,88.40
2018-05-02T04:15:21.359Z,88.50
2018-05-02T04:15:53.869Z,88.40
2018-05-02T04:16:26.374Z,88.30
2018-05-02T04:16:58.895Z,88.30
2018-05-02T04:17:31.407Z,87.70
2018-05-02T04:18:04.081Z,87.60
2018-05-02T04:18:37.786Z,87.70
2018-05-02T04:19:10.256Z,87.70
2018-05-02T04:19:42.768Z,88.30
2018-05-02T04:20:15.275Z,87.70
2018-05-02T04:20:47.792Z,88.30
2018-05-02T04:21:20.295Z,87.70
2018-05-02T04:21:52.816Z,87.80
2018-05-02T04:22:26.120Z,88.70
2018-05-02T04:22:58.689Z,88.60
2018-05-02T04:23:31.220Z,88.70
2018-05-02T04:24:03.729Z,88.70
2018-05-02T04:25:15.188Z,88.70
2018-05-02T04:25:47.754Z,88.60
2018-05-02T04:26:20.317Z,88.60
2018-05-02T04:26:52.880Z,88.10
2018-05-02T04:27:25.406Z,88.70
2018-05-02T04:27:57.927Z,88.50
2018-05-02T04:28:30.570Z,89.10
2018-05-02T04:29:03.145Z,89.30
2018-05-02T04:29:35.685Z,89.40
2018-05-02T04:30:08.225Z,89.30
2018-05-02T04:30:40.731Z,89.50
2018-05-02T04:31:13.278Z,89.20
2018-05-02T04:31:45.789Z,89.80
2018-05-02T04:32:19.440Z,89.40
2018-05-02T04:32:51.993Z,89.40
2018-05-02T04:33:24.515Z,90.00
2018-05-02T04:33:57.444Z,89.50
2018-05-02T04:34:29.997Z,89.50
2018-05-02T04:35:02.516Z,89.60
2018-05-02T04:35:35.136Z,89.70
2018-05-02T04:36:07.653Z,90.10
2018-05-02T04:36:41.296Z,90.00
2018-05-02T04:37:47.796Z,90.20
2018-05-02T04:38:20.411Z,90.40
2018-05-02T04:38:52.989Z,90.60
2018-05-02T04:39:25.534Z,90.40
2018-05-02T04:39:58.035Z,90.40
2018-05-02T04:40:30.559Z,90.70
2018-05-02T04:41:04.226Z,90.40
2018-05-02T04:41:37.539Z,91.00
2018-05-02T04:42:10.230Z,90.70
2018-05-02T04:42:42.747Z,90.70
2018-05-02T04:43:15.254Z,90.70
2018-05-02T04:43:47.793Z,90.70
2018-05-02T04:47:00.033Z,90.40
2018-05-02T04:47:32.553Z,90.30
2018-05-02T04:48:05.070Z,90.50
2018-05-02T04:48:37.573Z,90.60
2018-05-02T04:49:10.075Z,90.40
2018-05-02T04:49:42.622Z,90.70
2018-05-02T04:50:15.168Z,90.60
2018-05-02T04:50:47.675Z,90.80
2018-05-02T04:51:20.237Z,90.90
2018-05-02T04:51:52.803Z,90.90
2018-05-02T04:52:25.540Z,90.60
2018-05-02T04:52:58.051Z,90.60
2018-05-02T04:53:30.655Z,90.60
2018-05-02T04:54:03.145Z,90.90
2018-05-02T04:54:35.725Z,90.80
2018-05-02T04:55:08.256Z,90.50
2018-05-02T04:55:40.759Z,90.70
2018-05-02T04:56:13.263Z,90.50
2018-05-02T04:56:46.594Z,90.80
2018-05-02T04:57:19.133Z,90.70
2018-05-02T04:57:51.675Z,90.40
2018-05-02T04:58:24.212Z,90.30
2018-05-02T04:58:56.709Z,90.50
2018-05-02T04:59:29.373Z,90.50
2018-05-02T05:00:01.932Z,90.60
2018-05-02T05:00:34.482Z,90.60
2018-05-02T05:01:07.182Z,90.60
2018-05-02T05:01:39.693Z,90.60
2018-05-02T05:02:12.516Z,90.50
2018-05-02T05:02:45.029Z,90.30
2018-05-02T05:03:17.756Z,90.50
2018-05-02T05:03:50.461Z,90.50
2018-05-02T05:04:22.982Z,90.40
2018-05-02T05:04:55.548Z,90.30
2018-05-02T05:05:28.053Z,89.50
2018-05-02T05:06:00.599Z,89.20
2018-05-02T05:06:33.172Z,88.90
2018-05-02T05:07:05.741Z,88.20
2018-05-02T05:07:38.272Z,88.10
2018-05-02T05:08:10.803Z,87.10
2018-05-02T05:08:43.383Z,87.00
2018-05-02T05:09:16.060Z,88.20
2018-05-02T05:09:48.750Z,87.30
2018-05-02T05:10:21.486Z,86.70
2018-05-02T05:10:53.992Z,86.20
2018-05-02T05:11:26.551Z,85.90
2018-05-02T05:11:59.432Z,85.50
2018-05-02T05:12:32.135Z,84.60
2018-05-02T05:13:04.723Z,82.90
2018-05-02T05:13:37.271Z,83.40
2018-05-02T05:14:09.775Z,82.30
2018-05-02T05:14:42.510Z,81.80
2018-05-02T05:15:15.075Z,82.40
2018-05-02T05:15:47.581Z,82.30
2018-05-02T05:16:20.104Z,82.30
2018-05-02T05:16:52.624Z,81.80
2018-05-02T05:17:25.336Z,81.50
2018-05-02T05:17:57.840Z,81.70
2018-05-02T05:18:30.463Z,81.80
2018-05-02T05:19:02.996Z,81.90
2018-05-02T05:19:35.538Z,81.70
2018-05-02T05:20:08.100Z,80.70
2018-05-02T05:20:40.597Z,81.20
2018-05-02T05:21:13.101Z,80.70
2018-05-02T05:21:45.651Z,81.30
2018-05-02T05:22:18.167Z,81.60
2018-05-02T05:22:51.472Z,81.90
2018-05-02T05:23:24.132Z,81.80
2018-05-02T05:23:56.641Z,81.90
2018-05-02T05:24:29.192Z,82.10
2018-05-02T05:25:01.710Z,81.40
2018-05-02T05:25:35.014Z,81.80
2018-05-02T05:26:07.554Z,81.00
2018-05-02T05:26:40.087Z,81.50
2018-05-02T05:27:12.600Z,81.50
2018-05-02T05:27:45.151Z,81.40
2018-05-02T05:28:17.748Z,81.00
2018-05-02T05:28:50.276Z,80.20
2018-05-02T05:29:22.770Z,79.30
2018-05-02T05:29:55.264Z,79.40
2018-05-02T05:30:27.777Z,79.50
2018-05-02T05:31:00.353Z,79.60
2018-05-02T05:31:32.908Z,79.90
2018-05-02T05:32:05.420Z,80.40
2018-05-02T05:32:38.047Z,79.50
2018-05-02T05:33:10.611Z,80.10
2018-05-02T05:33:43.120Z,80.20
2018-05-02T05:34:15.643Z,80.20
2018-05-02T05:34:48.212Z,80.40
2018-05-02T05:35:20.896Z,79.60
2018-05-02T05:35:53.430Z,79.30
2018-05-02T05:36:25.939Z,79.30
2018-05-02T05:36:58.494Z,79.60
2018-05-02T05:37:31.020Z,79.20
2018-05-02T05:38:03.555Z,79.10
2018-05-02T05:38:36.853Z,78.20
2018-05-02T05:39:09.503Z,77.50
2018-05-02T05:39:42.880Z,78.60
2018-05-02T05:40:15.486Z,78.50
2018-05-02T05:40:48.066Z,78.30
2018-05-02T05:41:20.619Z,79.10
2018-05-02T05:41:53.137Z,79.20
2018-05-02T05:42:25.736Z,79.30
2018-05-02T05:42:58.280Z,79.40
2018-05-02T05:43:30.853Z,79.30
2018-05-02T05:44:03.374Z,79.10
2018-05-02T05:44:35.910Z,78.80
2018-05-02T05:45:08.758Z,78.60
2018-05-02T05:45:41.488Z,78.60
2018-05-02T05:46:14.273Z,78.70
2018-05-02T05:46:47.758Z,78.20
2018-05-02T05:47:21.044Z,78.00
2018-05-02T05:47:53.635Z,77.90
2018-05-02T05:48:26.369Z,78.00
2018-05-02T05:48:59.662Z,78.00
2018-05-02T05:49:32.224Z,77.90
2018-05-02T05:50:04.755Z,78.50
2018-05-02T05:50:37.284Z,78.00
2018-05-02T05:51:09.774Z,78.30
2018-05-02T05:51:42.291Z,77.80
2018-05-02T05:52:14.805Z,78.40
2018-05-02T05:52:47.526Z,78.00
2018-05-02T05:53:20.068Z,78.70
2018-05-02T05:53:52.740Z,78.70
2018-05-02T05:54:25.289Z,78.60
2018-05-02T05:54:57.793Z,78.70
2018-05-02T05:55:30.361Z,78.70
2018-05-02T05:56:04.028Z,78.40
2018-05-02T05:56:36.535Z,78.40
2018-05-02T05:57:09.077Z,79.00
2018-05-02T05:57:41.592Z,78.90
2018-05-02T05:58:14.869Z,78.50
2018-05-02T05:58:47.409Z,78.40
2018-05-02T05:59:19.989Z,78.60
2018-05-02T05:59:53.286Z,78.70
2018-05-02T06:00:25.908Z,78.70
2018-05-02T06:00:58.453Z,78.00
2018-05-02T06:01:33.972Z,78.70
2018-05-02T06:02:06.497Z,78.60
2018-05-02T06:02:39.049Z,77.50
2018-05-02T06:03:11.562Z,78.00
2018-05-02T06:03:44.079Z,78.00
2018-05-02T06:04:16.593Z,77.10
2018-05-02T06:04:49.109Z,77.60
2018-05-02T06:05:21.719Z,77.30
2018-05-02T06:05:54.480Z,77.20
2018-05-02T06:06:27.155Z,76.60
2018-05-02T06:06:59.676Z,76.60
2018-05-02T06:07:32.236Z,76.30
2018-05-02T06:08:04.789Z,75.80
2018-05-02T06:08:37.320Z,75.50
2018-05-02T06:09:09.821Z,76.00
2018-05-02T06:09:42.500Z,76.10
2018-05-02T06:10:15.017Z,76.20
2018-05-02T06:10:47.629Z,76.30
2018-05-02T06:11:20.257Z,76.30
2018-05-02T06:11:52.776Z,76.30
2018-05-02T06:12:25.320Z,76.30
2018-05-02T06:12:58.597Z,75.40
2018-05-02T06:13:31.213Z,75.40
2018-05-02T06:14:03.748Z,75.40
2018-05-02T06:14:37.033Z,75.50
2018-05-02T06:15:09.540Z,75.50
2018-05-02T06:15:42.282Z,75.30
2018-05-02T06:16:14.813Z,75.00
2018-05-02T06:16:48.331Z,75.00
2018-05-02T06:17:20.894Z,75.00
2018-05-02T06:17:54.406Z,75.20
2018-05-02T06:18:26.987Z,75.00
2018-05-02T06:18:59.510Z,73.90
2018-05-02T06:19:32.040Z,73.70
2018-05-02T06:20:04.556Z,74.30
2018-05-02T06:20:37.074Z,74.40
2018-05-02T06:21:09.593Z,74.40
2018-05-02T06:21:42.108Z,74.40
2018-05-02T06:22:14.666Z,74.70
2018-05-02T06:22:47.943Z,74.20
2018-05-02T06:23:20.477Z,73.70
2018-05-02T06:23:52.985Z,73.60
2018-05-02T06:24:25.512Z,74.20
2018-05-02T06:24:58.806Z,74.20
2018-05-02T06:25:31.351Z,73.60
2018-05-02T06:26:04.044Z,74.50
2018-05-02T06:26:37.304Z,74.30
2018-05-02T06:27:09.815Z,74.30
2018-05-02T06:27:42.377Z,74.20
2018-05-02T06:28:14.887Z,74.10
2018-05-02T06:28:47.730Z,74.30
2018-05-02T06:29:20.709Z,73.10
2018-05-02T06:29:53.247Z,73.00
2018-05-02T06:30:25.776Z,73.70
2018-05-02T06:30:59.047Z,73.40
2018-05-02T06:31:31.571Z,74.00
2018-05-02T06:32:04.081Z,73.70
2018-05-02T06:32:36.597Z,73.10
2018-05-02T06:33:09.699Z,71.80
2018-05-02T06:33:42.232Z,72.00
2018-05-02T06:34:14.800Z,72.00
2018-05-02T06:34:47.316Z,71.60
2018-05-02T06:35:20.609Z,72.30
2018-05-02T06:35:53.140Z,72.30
2018-05-02T06:36:25.655Z,72.70
2018-05-02T06:36:58.184Z,72.40
2018-05-02T06:37:31.510Z,73.00
2018-05-02T06:38:04.004Z,73.00
2018-05-02T06:38:36.580Z,72.70
2018-05-02T06:39:09.255Z,73.40
2018-05-02T06:39:42.660Z,73.20
2018-05-02T06:40:15.237Z,72.60
2018-05-02T06:40:47.751Z,73.20
2018-05-02T06:41:20.332Z,72.30
2018-05-02T06:41:52.861Z,73.00
2018-05-02T06:42:25.367Z,72.70
2018-05-02T06:42:58.643Z,73.20
2018-05-02T06:43:31.243Z,73.20
2018-05-02T06:44:03.738Z,72.70
2018-05-02T06:44:36.264Z,72.80
2018-05-02T06:45:08.789Z,73.40
2018-05-02T06:45:41.526Z,73.40
2018-05-02T06:46:14.441Z,72.60
2018-05-02T06:46:47.743Z,73.20
2018-05-02T06:47:21.328Z,72.30
2018-05-02T06:47:53.854Z,72.90
2018-05-02T06:48:26.760Z,73.00
2018-05-02T06:48:59.491Z,72.50
2018-05-02T06:49:32.024Z,72.00
2018-05-02T06:50:04.541Z,72.30
2018-05-02T06:50:37.067Z,71.50
2018-05-02T06:51:09.579Z,71.50
2018-05-02T06:51:42.095Z,71.00
2018-05-02T06:52:14.598Z,71.10
2018-05-02T06:52:47.871Z,70.80
2018-05-02T06:53:20.394Z,70.50
2018-05-02T06:53:52.926Z,71.10
2018-05-02T06:54:25.457Z,71.20
2018-05-02T06:54:58.766Z,71.90
2018-05-02T06:55:31.315Z,71.40
2018-05-02T06:56:03.862Z,72.00
2018-05-02T06:56:36.382Z,71.00
2018-05-02T06:57:08.911Z,71.50
2018-05-02T06:57:41.434Z,71.50
2018-05-02T06:58:13.947Z,71.50
2018-05-02T06:58:46.478Z,71.60
2018-05-02T06:59:19.069Z,71.40
2018-05-02T06:59:51.651Z,72.10
2018-05-02T07:00:24.214Z,72.20
2018-05-02T07:00:56.795Z,71.30
2018-05-02T07:01:29.529Z,71.40
2018-05-02T07:02:02.060Z,71.20
2018-05-02T07:02:35.345Z,71.90
2018-05-02T07:03:08.162Z,71.60
2018-05-02T07:03:40.686Z,71.50
2018-05-02T07:04:13.311Z,72.10
2018-05-02T07:04:45.827Z,72.10
2018-05-02T07:05:18.523Z,70.80
2018-05-02T07:05:51.076Z,70.90
2018-05-02T07:06:23.642Z,71.40
2018-05-02T07:06:56.151Z,71.70
2018-05-02T07:07:28.670Z,71.90
2018-05-02T07:08:01.189Z,71.90
2018-05-02T07:08:33.871Z,71.30
2018-05-02T07:09:06.407Z,71.20